Time;durP1;ratioP1;P1;durP2;ratioP2;P2;SDS_P1;SDS_P2;PMS_P1;PMS_P2;Temp;Humidity;BMP_temperature;BMP_pressure;BME280_temperature;BME280_humidity;BME280_pressure;Samples;Min_cycle;Max_cycle;Signal;HPM_P1;HPM_P2
2024/01/28 00:01:43;;;;;;;17.05;7.18;;;2.80;99.90;;;2.93;69.62;102256.81;5000177;28;20069;-80
2024/01/28 00:04:14;;;;;;;17.90;6.70;;;2.70;99.90;;;2.90;69.62;102246.50;4982631;28;20053;-80
2024/01/28 00:06:41;;;;;;;18.90;7.20;;;2.70;99.90;;;2.87;69.64;102259.06;4982746;28;20092;-80
2024/01/28 00:09:09;;;;;;;16.92;6.32;;;2.70;99.90;;;2.79;69.37;102249.97;4982540;28;20065;-80
2024/01/28 00:11:39;;;;;;;20.45;7.93;;;2.60;99.90;;;2.76;69.36;102251.97;4999396;28;20045;-80
2024/01/28 00:14:07;;;;;;;20.83;8.13;;;2.60;99.90;;;2.73;69.70;102247.78;4983039;28;20050;-80
2024/01/28 00:16:34;;;;;;;17.17;7.40;;;2.50;99.90;;;2.74;69.35;102251.25;5001855;28;20529;-80
2024/01/28 00:19:05;;;;;;;18.05;7.88;;;2.50;99.90;;;2.74;69.43;102243.38;5020125;28;20061;-80
2024/01/28 00:21:33;;;;;;;17.48;7.00;;;2.50;99.90;;;2.74;69.53;102240.72;5018830;28;20104;-80
2024/01/28 00:24:04;;;;;;;14.63;6.97;;;2.50;99.90;;;2.74;69.71;102238.09;5020070;28;20041;-80
2024/01/28 00:26:37;;;;;;;16.10;6.28;;;2.50;99.90;;;2.72;69.61;102232.09;5011754;28;20073;-80
2024/01/28 00:29:04;;;;;;;18.60;6.80;;;2.50;99.90;;;2.72;69.85;102224.19;5000118;28;20034;-80
2024/01/28 00:31:32;;;;;;;17.38;6.47;;;2.60;99.90;;;2.73;69.75;102223.22;4999889;28;20046;-80
2024/01/28 00:34:00;;;;;;;14.13;6.70;;;2.50;99.90;;;2.71;69.76;102217.25;4982469;28;20417;-80
2024/01/28 00:36:29;;;;;;;16.60;6.25;;;2.50;99.90;;;2.67;69.34;102215.78;4999824;28;20043;-80
2024/01/28 00:38:56;;;;;;;15.93;6.22;;;2.40;99.90;;;2.65;69.57;102208.00;4998693;28;20077;-80
2024/01/28 00:41:26;;;;;;;15.02;6.28;;;2.40;99.90;;;2.63;69.42;102202.00;4982196;28;20100;-80
2024/01/28 00:43:54;;;;;;;21.20;6.88;;;2.40;99.90;;;2.62;69.64;102210.88;4999687;28;20069;-80
2024/01/28 00:46:23;;;;;;;15.73;6.90;;;2.40;99.90;;;2.62;69.21;102213.50;4981876;28;20042;-80
2024/01/28 00:48:51;;;;;;;19.08;6.43;;;2.40;99.90;;;2.61;69.33;102208.38;4999513;28;20039;-80
2024/01/28 00:51:19;;;;;;;14.63;5.85;;;2.30;99.90;;;2.59;69.18;102203.22;4982632;28;20042;-80
2024/01/28 00:53:49;;;;;;;17.77;5.88;;;2.40;99.90;;;2.60;69.62;102201.44;4966048;28;20051;-80
2024/01/28 00:56:17;;;;;;;16.33;5.57;;;2.40;99.90;;;2.60;69.20;102204.91;4983345;28;20097;-80
2024/01/28 00:58:48;;;;;;;18.13;6.25;;;2.40;99.90;;;2.62;69.58;102202.13;4999458;28;20042;-80
2024/01/28 01:01:15;;;;;;;17.02;6.07;;;2.40;99.90;;;2.59;69.38;102197.94;4982190;28;20050;-80
2024/01/28 01:03:43;;;;;;;17.88;6.63;;;2.40;99.90;;;2.55;69.08;102202.59;5009585;28;20044;-81
2024/01/28 01:06:10;;;;;;;16.40;6.32;;;2.40;99.90;;;2.53;69.47;102211.56;4985245;28;20052;-80
2024/01/28 01:08:38;;;;;;;10.48;5.50;;;2.30;99.90;;;2.49;69.39;102204.84;5017863;28;20046;-80
2024/01/28 01:11:08;;;;;;;12.38;5.43;;;2.20;99.90;;;2.45;69.37;102208.69;5000392;28;20046;-80
2024/01/28 01:13:36;;;;;;;11.37;5.40;;;2.20;99.90;;;2.44;69.18;102202.59;5009741;28;20089;-80
2024/01/28 01:16:04;;;;;;;16.55;6.10;;;2.20;99.90;;;2.41;69.25;102210.72;4949039;28;20278;-80
2024/01/28 01:18:31;;;;;;;14.80;5.93;;;2.20;99.90;;;2.39;69.39;102198.59;4999399;28;20050;-80
2024/01/28 01:20:58;;;;;;;13.70;5.55;;;2.20;99.90;;;2.38;69.15;102208.28;4949250;28;20510;-80
2024/01/28 01:23:26;;;;;;;14.50;5.72;;;2.10;99.90;;;2.38;69.48;102192.50;5002523;28;20125;-80
2024/01/28 01:25:53;;;;;;;14.82;6.13;;;2.20;99.90;;;2.40;69.52;102197.66;4986904;28;20041;-80
2024/01/28 01:28:24;;;;;;;13.35;6.18;;;2.20;99.90;;;2.40;69.22;102195.88;5018082;28;20054;-80
2024/01/28 01:30:51;;;;;;;15.05;6.10;;;2.20;99.90;;;2.42;69.32;102188.69;5017885;28;20121;-80
2024/01/28 01:33:19;;;;;;;15.90;6.38;;;2.20;99.90;;;2.40;69.45;102185.34;5017843;28;20046;-80
2024/01/28 01:35:49;;;;;;;19.05;6.45;;;2.20;99.90;;;2.36;69.17;102185.69;4971067;28;20053;-80
2024/01/28 01:38:17;;;;;;;14.57;6.03;;;2.10;99.90;;;2.35;69.22;102184.84;4978982;28;20039;-80
2024/01/28 01:40:44;;;;;;;18.70;6.30;;;2.10;99.90;;;2.35;69.52;102173.47;4977468;28;20053;-80
2024/01/28 01:43:13;;;;;;;20.08;6.32;;;2.10;99.90;;;2.34;69.54;102180.50;4964150;28;20414;-80
2024/01/28 01:45:41;;;;;;;12.20;5.47;;;2.10;99.90;;;2.35;69.41;102171.69;4999797;28;20133;-80
2024/01/28 01:48:11;;;;;;;12.13;5.18;;;2.10;99.90;;;2.37;69.58;102169.75;5000090;28;20461;-80
2024/01/28 01:50:40;;;;;;;17.10;5.80;;;2.10;99.90;;;2.35;69.41;102174.31;4999065;28;20117;-80
2024/01/28 01:53:09;;;;;;;14.27;5.45;;;2.10;99.90;;;2.33;69.48;102181.47;4996378;28;20058;-80
2024/01/28 01:55:40;;;;;;;12.27;5.22;;;2.10;99.90;;;2.36;69.29;102183.03;4980548;28;20035;-80
2024/01/28 01:58:09;;;;;;;13.18;5.53;;;2.10;99.90;;;2.34;69.02;102172.63;4980566;28;20074;-80
2024/01/28 02:00:37;;;;;;;12.27;5.13;;;2.10;99.90;;;2.32;68.96;102178.00;4981010;28;20044;-80
2024/01/28 02:03:07;;;;;;;14.55;5.18;;;2.10;99.90;;;2.31;69.33;102178.13;4997972;28;20050;-80
2024/01/28 02:05:34;;;;;;;14.68;5.47;;;2.10;99.90;;;2.29;69.13;102178.25;5014136;28;20076;-80
2024/01/28 02:08:02;;;;;;;18.92;5.38;;;2.10;99.90;;;2.29;69.18;102172.13;4999883;28;20105;-80
2024/01/28 02:10:31;;;;;;;11.13;4.97;;;2.10;99.90;;;2.28;69.15;102168.66;4988693;28;20052;-80
2024/01/28 02:12:58;;;;;;;14.48;4.97;;;2.00;99.90;;;2.29;69.28;102166.84;4980838;28;20052;-80
2024/01/28 02:15:26;;;;;;;13.77;4.90;;;2.00;99.90;;;2.29;69.02;102156.31;4980095;28;20105;-80
2024/01/28 02:17:55;;;;;;;12.23;4.90;;;2.10;99.90;;;2.27;69.08;102148.56;4997296;28;20050;-80
2024/01/28 02:20:23;;;;;;;13.65;4.53;;;2.10;99.90;;;2.26;69.02;102146.88;4987682;28;20050;-80
2024/01/28 02:22:51;;;;;;;11.32;4.40;;;2.00;99.90;;;2.26;69.30;102151.31;5017042;28;20131;-80
2024/01/28 02:25:20;;;;;;;14.95;5.55;;;2.00;99.90;;;2.24;69.06;102134.78;4999404;28;20042;-80
2024/01/28 02:27:50;;;;;;;11.43;4.45;;;2.00;99.90;;;2.25;69.08;102144.38;5016861;28;20061;-80
2024/01/28 02:30:17;;;;;;;15.63;4.63;;;2.10;99.90;;;2.24;69.05;102143.50;4991948;28;20074;-80
2024/01/28 02:32:50;;;;;;;12.70;4.70;;;2.00;99.90;;;2.25;68.71;102131.22;4980221;28;20042;-80
2024/01/28 02:35:18;;;;;;;13.90;4.80;;;2.00;99.90;;;2.25;69.12;102129.41;4963823;28;20129;-80
2024/01/28 02:37:46;;;;;;;11.15;4.68;;;2.00;99.90;;;2.28;69.22;102126.53;4997488;28;20089;-80
2024/01/28 02:40:14;;;;;;;11.75;4.43;;;2.10;99.90;;;2.30;68.99;102126.44;4979870;28;20049;-80
2024/01/28 02:42:42;;;;;;;11.38;4.55;;;2.10;99.90;;;2.28;68.97;102130.97;4979120;28;20042;-80
2024/01/28 02:45:10;;;;;;;10.52;4.35;;;2.10;99.90;;;2.21;69.11;102127.97;4997594;28;20137;-80
2024/01/28 02:47:38;;;;;;;11.75;4.55;;;2.00;99.90;;;2.18;69.04;102125.56;4996883;28;20046;-80
2024/01/28 02:50:09;;;;;;;11.98;4.40;;;2.00;99.90;;;2.16;69.22;102121.38;4967403;28;20489;-80
2024/01/28 02:52:36;;;;;;;9.38;4.07;;;1.90;99.90;;;2.15;69.14;102127.56;4999892;28;20064;-80
2024/01/28 02:55:05;;;;;;;11.85;4.25;;;1.90;99.90;;;2.16;69.16;102126.63;5017425;28;20556;-80
2024/01/28 02:57:33;;;;;;;9.20;4.13;;;2.00;99.90;;;2.18;69.14;102119.44;4998876;28;20050;-80
2024/01/28 03:00:03;;;;;;;15.50;5.32;;;2.00;99.90;;;2.20;69.13;102114.94;4994708;28;20049;-80
2024/01/28 03:02:31;;;;;;;10.55;4.75;;;2.00;99.90;;;2.22;69.35;102118.28;4979590;28;20050;-79
2024/01/28 03:04:58;;;;;;;15.52;5.30;;;2.00;99.90;;;2.25;69.34;102118.06;4996845;28;20047;-80
2024/01/28 03:07:25;;;;;;;14.23;5.00;;;2.10;99.90;;;2.21;69.20;102121.88;4980436;28;20409;-80
2024/01/28 03:09:53;;;;;;;14.52;4.85;;;2.00;99.90;;;2.18;69.09;102117.66;4999453;28;20066;-80
2024/01/28 03:12:20;;;;;;;10.07;4.10;;;2.00;99.90;;;2.15;69.22;102120.53;4998751;28;20464;-80
2024/01/28 03:14:48;;;;;;;9.88;4.15;;;1.90;99.90;;;2.12;69.46;102101.50;4999163;28;20042;-80
2024/01/28 03:17:16;;;;;;;11.45;4.78;;;1.90;99.90;;;2.12;69.30;102094.44;4998188;28;20042;-80
2024/01/28 03:19:44;;;;;;;12.52;5.10;;;1.90;99.90;;;2.13;69.40;102092.66;4996810;28;20124;-80
2024/01/28 03:22:11;;;;;;;10.40;4.57;;;1.90;99.90;;;2.15;69.43;102088.97;4979221;28;20113;-80
2024/01/28 03:24:40;;;;;;;10.38;4.57;;;1.90;99.90;;;2.18;69.60;102101.88;4979455;28;20112;-79
2024/01/28 03:27:08;;;;;;;9.30;4.10;;;1.90;99.90;;;2.14;69.28;102100.41;4979892;28;20046;-80
2024/01/28 03:29:35;;;;;;;10.15;4.28;;;2.00;99.90;;;2.10;69.34;102100.75;4978834;28;20129;-79
2024/01/28 03:32:03;;;;;;;11.73;4.65;;;1.90;99.90;;;2.08;69.48;102110.56;4978354;28;20074;-80
2024/01/28 03:34:32;;;;;;;12.60;4.60;;;1.90;99.90;;;2.10;69.66;102092.88;4963028;28;20142;-80
2024/01/28 03:36:59;;;;;;;13.45;4.30;;;1.90;99.90;;;2.11;69.41;102095.41;5000500;28;20046;-80
2024/01/28 03:39:27;;;;;;;13.52;3.95;;;1.90;99.90;;;2.12;69.29;102085.72;4999931;28;20048;-80
2024/01/28 03:41:54;;;;;;;11.43;4.10;;;1.90;99.90;;;2.13;69.33;102087.38;4982130;28;20387;-80
2024/01/28 03:44:23;;;;;;;11.07;3.95;;;1.90;99.90;;;2.10;69.21;102077.94;5000361;28;20498;-80
2024/01/28 03:46:51;;;;;;;9.85;4.22;;;1.90;99.90;;;2.08;69.18;102081.63;4983378;28;20526;-80
2024/01/28 03:49:18;;;;;;;11.50;4.57;;;1.90;99.90;;;2.05;69.13;102077.47;5000924;28;20055;-80
2024/01/28 03:51:48;;;;;;;10.60;3.95;;;1.80;99.90;;;2.02;69.40;102083.78;4983494;28;20039;-80
2024/01/28 03:54:15;;;;;;;11.77;4.07;;;1.80;99.90;;;2.00;69.42;102082.19;4980942;28;20038;-80
2024/01/28 03:56:43;;;;;;;12.63;4.07;;;1.80;99.90;;;1.98;69.22;102087.59;4980999;28;20050;-80
2024/01/28 03:59:10;;;;;;;11.23;4.47;;;1.80;99.90;;;1.98;69.21;102084.94;4979137;28;20157;-80
2024/01/28 04:01:38;;;;;;;9.20;4.00;;;1.80;99.90;;;1.98;69.49;102082.31;4997970;28;20141;-80
2024/01/28 04:04:05;;;;;;;13.88;3.60;;;1.80;99.90;;;1.97;69.31;102079.81;4986363;28;20041;-80
2024/01/28 04:06:33;;;;;;;7.38;3.50;;;1.80;99.90;;;1.99;69.52;102085.78;5002575;28;20386;-80
2024/01/28 04:09:02;;;;;;;8.48;3.47;;;1.80;99.90;;;2.01;69.35;102079.47;5002113;28;20046;-80
2024/01/28 04:11:30;;;;;;;9.65;3.25;;;1.80;99.90;;;2.02;69.52;102075.88;5018981;28;20042;-80
2024/01/28 04:13:58;;;;;;;13.57;3.80;;;1.80;99.90;;;2.04;69.52;102078.38;5001591;28;20493;-80
2024/01/28 04:16:26;;;;;;;9.80;3.55;;;1.80;99.90;;;2.06;69.48;102081.75;4986395;28;20042;-79
2024/01/28 04:18:54;;;;;;;11.90;3.13;;;1.80;99.90;;;2.03;69.28;102069.66;5019425;28;20052;-80
2024/01/28 04:21:23;;;;;;;9.25;3.35;;;1.80;99.90;;;2.04;69.43;102071.31;4992820;28;20498;-80
2024/01/28 04:23:51;;;;;;;10.13;2.92;;;1.80;99.90;;;2.01;69.29;102061.06;4980136;28;20043;-80
2024/01/28 04:26:21;;;;;;;10.00;3.40;;;1.80;99.90;;;2.01;69.26;102060.22;4978945;28;20113;-80
2024/01/28 04:28:48;;;;;;;6.70;2.90;;;1.80;99.90;;;1.99;68.96;102059.47;4978920;28;20499;-79
2024/01/28 04:31:16;;;;;;;12.00;3.28;;;1.80;99.90;;;1.97;69.30;102056.97;4998246;28;20066;-80
2024/01/28 04:33:44;;;;;;;10.38;3.22;;;1.80;99.90;;;1.96;69.16;102041.31;4982208;28;20422;-80
2024/01/28 04:36:13;;;;;;;8.00;3.20;;;1.80;99.90;;;1.94;69.08;102045.84;4981799;28;20485;-80
2024/01/28 04:38:40;;;;;;;8.02;2.97;;;1.80;99.90;;;1.93;69.23;102031.84;4965539;28;20046;-80
2024/01/28 04:41:08;;;;;;;6.85;2.80;;;1.80;99.90;;;1.92;69.21;102040.69;4982237;28;20133;-80
2024/01/28 04:43:39;;;;;;;14.35;3.58;;;1.70;99.90;;;1.93;69.05;102042.38;4998067;28;20042;-80
2024/01/28 04:46:06;;;;;;;;;;;1.70;99.90;;;1.92;69.13;102030.19;4999973;28;20070;-80
2024/01/28 04:48:34;;;;;;;5.03;2.47;;;1.80;99.90;;;1.94;69.23;102035.31;4999660;28;19922;-80
2024/01/28 04:51:01;;;;;;;7.45;2.55;;;1.80;99.90;;;1.94;69.19;102015.09;4981558;28;20074;-80
2024/01/28 04:53:28;;;;;;;11.00;3.60;;;1.80;99.90;;;1.94;69.21;102024.78;4981638;28;20058;-80
2024/01/28 04:55:56;;;;;;;9.15;2.80;;;1.70;99.90;;;1.92;69.25;102019.66;4999089;28;20105;-80
2024/01/28 04:58:25;;;;;;;8.38;3.20;;;1.70;99.90;;;1.91;69.25;102022.41;4981436;28;20043;-80
2024/01/28 05:00:54;;;;;;;8.13;2.85;;;1.70;99.90;;;1.86;69.38;102008.78;4982209;28;20395;-80
2024/01/28 05:03:22;;;;;;;11.38;3.35;;;1.90;99.90;;;1.84;69.44;102008.88;4998761;28;20052;-80
2024/01/28 05:05:49;;;;;;;8.80;2.95;;;1.60;99.90;;;1.84;69.09;102005.41;4999192;28;20065;-80
2024/01/28 05:08:17;;;;;;;7.68;3.00;;;1.60;99.90;;;1.83;69.37;102009.81;4999046;28;20073;-80
2024/01/28 05:10:46;;;;;;;11.02;3.13;;;1.60;99.90;;;1.82;69.12;102008.16;4988037;28;20482;-80
2024/01/28 05:13:13;;;;;;;9.38;3.10;;;1.60;99.90;;;1.80;69.17;101997.72;4981452;28;20053;-80
2024/01/28 05:15:42;;;;;;;8.52;2.78;;;1.60;99.90;;;1.80;69.17;102008.25;4964587;28;20473;-80
2024/01/28 05:18:12;;;;;;;8.50;2.67;;;1.60;99.90;;;1.82;69.23;102004.69;4999239;28;20046;-80
2024/01/28 05:20:39;;;;;;;6.22;3.47;;;1.60;99.90;;;1.79;69.39;101995.22;4981241;28;20091;-80
2024/01/28 05:23:07;;;;;;;12.02;2.85;;;1.60;99.90;;;1.78;69.47;101994.41;4981240;28;20553;-79
2024/01/28 05:25:34;;;;;;;9.20;2.70;;;1.60;99.90;;;1.79;69.63;101996.06;4997900;28;20046;-80
2024/01/28 05:28:02;;;;;;;7.18;3.10;;;1.60;99.90;;;1.81;69.62;101995.97;4998574;28;20104;-80
2024/01/28 05:30:30;;;;;;;7.55;3.67;;;1.60;99.90;;;1.82;69.51;101991.53;4980884;28;20051;-80
2024/01/28 05:32:58;;;;;;;9.07;3.00;;;1.60;99.90;;;1.80;69.28;101991.63;4998515;28;20098;-80
2024/01/28 05:35:30;;;;;;;9.00;3.28;;;1.70;99.90;;;1.80;69.41;101981.94;4981510;28;20043;-80
2024/01/28 05:37:59;;;;;;;6.40;2.95;;;1.60;99.90;;;1.81;69.43;101985.44;4979135;28;20046;-79
2024/01/28 05:40:27;;;;;;;6.32;2.60;;;1.70;99.90;;;1.82;69.44;101981.84;4980440;28;20042;-80
2024/01/28 05:42:55;;;;;;;8.30;3.15;;;1.70;99.90;;;1.81;69.52;101977.56;4980539;28;20057;-80
2024/01/28 05:45:22;;;;;;;9.68;3.03;;;1.70;99.90;;;1.83;69.64;101986.16;4980744;28;20096;-80
2024/01/28 05:47:50;;;;;;;11.00;2.95;;;1.70;99.90;;;1.81;69.53;101988.06;4997920;28;20039;-80
2024/01/28 05:50:17;;;;;;;8.27;3.05;;;1.60;99.90;;;1.79;69.50;101984.72;4998310;28;20120;-80
2024/01/28 05:52:46;;;;;;;10.60;4.40;;;1.60;99.90;;;1.80;69.58;101989.00;4980324;28;20043;-80
2024/01/28 05:55:13;;;;;;;9.70;4.10;;;1.60;99.90;;;1.78;69.63;101989.13;4979471;28;20077;-80
2024/01/28 05:57:41;;;;;;;9.32;4.80;;;1.60;99.90;;;1.78;69.83;101983.03;4997768;28;20105;-80
2024/01/28 06:00:11;;;;;;;16.55;6.65;;;1.60;99.90;;;1.80;69.97;101994.25;4976716;28;20138;-80
2024/01/28 06:02:40;;;;;;;8.47;5.20;;;1.60;99.90;;;1.79;69.51;101985.53;4976913;28;20049;-80
2024/01/28 06:05:09;;;;;;;11.43;4.10;;;1.60;99.90;;;1.82;69.61;101988.91;4977174;28;20062;-80
2024/01/28 06:07:36;;;;;;;20.52;3.42;;;1.60;99.90;;;1.85;69.70;101981.59;4977172;28;20094;-80
2024/01/28 06:10:07;;;;;;;10.45;2.95;;;1.70;99.90;;;1.89;69.78;101977.78;4980806;28;20057;-80
2024/01/28 06:12:34;;;;;;;7.25;2.92;;;1.80;99.90;;;1.90;69.93;101981.25;4979985;28;20092;-80
2024/01/28 06:15:06;;;;;;;5.90;2.63;;;1.80;99.90;;;1.89;69.65;101988.31;4997903;28;20054;-80
2024/01/28 06:17:36;;;;;;;11.05;3.47;;;1.80;99.90;;;1.88;69.57;101981.38;4980465;28;20502;-80
2024/01/28 06:20:05;;;;;;;7.45;3.50;;;1.70;99.90;;;1.86;69.54;101985.94;4980925;28;20046;-80
2024/01/28 06:22:33;;;;;;;11.32;4.32;;;1.70;99.90;;;1.87;69.67;101984.97;4980246;28;20042;-80
2024/01/28 06:25:00;;;;;;;6.90;3.33;;;1.70;99.90;;;1.86;69.75;101980.66;4997764;28;20053;-80
2024/01/28 06:27:30;;;;;;;8.95;3.30;;;1.70;99.90;;;1.85;69.69;101984.22;4997850;28;20047;-80
2024/01/28 06:29:58;;;;;;;8.82;3.63;;;1.70;99.90;;;1.84;69.64;101977.31;5015810;28;20058;-80
2024/01/28 06:32:26;;;;;;;6.13;2.80;;;1.70;99.90;;;1.86;69.50;101978.03;4999530;28;20073;-80
2024/01/28 06:34:53;;;;;;;7.45;3.08;;;1.70;99.90;;;1.84;69.39;101977.31;5014503;28;20448;-80
2024/01/28 06:37:21;;;;;;;5.85;2.60;;;1.70;99.90;;;1.83;69.61;101978.25;4980390;28;20105;-80
2024/01/28 06:39:51;;;;;;;6.57;2.42;;;1.60;99.90;;;1.82;69.51;101983.66;4979781;28;20046;-80
2024/01/28 06:42:19;;;;;;;6.70;2.45;;;1.60;99.90;;;1.81;69.41;101977.56;4996865;28;20042;-80
2024/01/28 06:44:48;;;;;;;6.32;2.25;;;1.60;99.90;;;1.83;69.27;101972.16;4997293;28;20245;-80
2024/01/28 06:47:15;;;;;;;6.70;2.40;;;1.60;99.90;;;1.79;69.27;101969.75;4997072;28;20051;-80
2024/01/28 06:49:43;;;;;;;7.82;2.00;;;1.60;99.90;;;1.76;68.99;101967.38;4995696;28;20571;-80
2024/01/28 06:52:10;;;;;;;6.18;2.00;;;1.60;99.90;;;1.74;69.12;101965.81;4983215;28;20049;-80
2024/01/28 06:54:40;;;;;;;6.22;2.20;;;1.60;99.90;;;1.73;69.32;101967.59;4999229;28;20050;-80
2024/01/28 06:57:08;;;;;;;6.83;2.10;;;1.60;99.90;;;1.76;68.96;101983.16;4999254;28;20563;-80
2024/01/28 06:59:38;;;;;;;3.85;1.90;;;1.60;99.90;;;1.77;69.02;101976.09;5016024;28;20073;-80
2024/01/28 07:02:08;;;;;;;5.30;1.60;;;1.60;99.90;;;1.77;68.93;101971.69;4999012;28;20472;-80
2024/01/28 07:04:36;;;;;;;7.70;1.80;;;1.60;99.90;;;1.77;68.90;101968.22;4999260;28;20304;-80
2024/01/28 07:07:04;;;;;;;4.38;1.70;;;1.60;99.90;;;1.77;68.80;101978.75;5001769;28;20112;-80
2024/01/28 07:09:32;;;;;;;6.10;2.10;;;1.50;99.90;;;1.72;68.84;101971.19;5006217;28;20133;-80
2024/01/28 07:12:00;;;;;;;7.07;1.98;;;1.50;99.90;;;1.68;68.95;101969.75;5032131;22;20046;-80
2024/01/28 07:14:27;;;;;;;8.05;1.73;;;1.50;99.90;;;1.69;68.94;101970.59;5021101;28;20069;-80
2024/01/28 07:16:55;;;;;;;5.47;2.08;;;1.50;99.90;;;1.65;68.82;101977.84;5003423;28;20049;-80
2024/01/28 07:19:24;;;;;;;5.47;2.00;;;1.50;99.90;;;1.65;68.94;101979.66;5003301;28;20049;-80
2024/01/28 07:21:53;;;;;;;7.00;2.30;;;1.50;99.90;;;1.67;68.99;101972.50;5021052;28;20507;-80
2024/01/28 07:24:21;;;;;;;8.10;2.92;;;1.50;99.90;;;1.67;68.90;101970.72;5020719;28;20079;-80
2024/01/28 07:26:49;;;;;;;5.32;2.25;;;1.50;99.90;;;1.66;68.91;101968.16;5021057;28;20145;-80
2024/01/28 07:29:16;;;;;;;7.43;2.42;;;1.50;99.90;;;1.68;69.09;101961.84;4999801;28;20122;-80
2024/01/28 07:31:44;;;;;;;9.05;2.67;;;1.50;99.90;;;1.71;69.15;101966.91;5003006;28;20077;-81
2024/01/28 07:34:11;;;;;;;7.93;3.10;;;1.60;99.90;;;1.74;69.09;101968.44;4986105;28;20053;-81
2024/01/28 07:36:40;;;;;;;9.60;3.38;;;1.60;99.90;;;1.75;68.69;101963.06;4951819;28;20051;-83
2024/01/28 07:39:08;;;;;;;10.48;3.05;;;1.60;99.90;;;1.74;68.87;101956.13;4992158;28;20049;-84
2024/01/28 07:41:36;;;;;;;8.98;3.30;;;1.60;99.90;;;1.72;68.93;101946.69;5002699;28;20042;-81
2024/01/28 07:44:04;;;;;;;9.15;3.55;;;1.50;99.90;;;1.69;68.88;101946.91;4987891;28;20106;-84
2024/01/28 07:46:33;;;;;;;15.10;6.20;;;1.50;99.90;;;1.71;69.08;101942.41;4985451;28;20042;-84
2024/01/28 07:49:00;;;;;;;11.98;5.18;;;1.60;99.90;;;1.72;69.17;101939.63;4995940;28;20053;-83
2024/01/28 07:51:30;;;;;;;15.25;6.60;;;1.60;99.90;;;1.70;69.09;101925.75;4989029;28;20057;-83
2024/01/28 07:53:59;;;;;;;16.75;8.38;;;1.60;99.90;;;1.73;69.11;101932.59;5022597;28;20041;-83
2024/01/28 07:56:27;;;;;;;14.85;7.75;;;1.60;99.90;;;1.76;69.34;101924.47;5021092;28;20417;-83
2024/01/28 07:58:54;;;;;;;11.63;6.10;;;1.60;99.90;;;1.79;69.47;101917.16;5006522;28;20045;-83
2024/01/28 08:01:24;;;;;;;19.35;5.50;;;1.70;99.90;;;1.85;69.74;101915.84;5021827;28;20048;-84
2024/01/28 08:03:53;;;;;;;13.23;5.40;;;1.80;99.90;;;1.88;69.64;101912.97;5004923;28;20528;-84
2024/01/28 08:06:21;;;;;;;16.55;6.10;;;1.80;99.90;;;1.91;69.92;101909.28;4988424;28;20042;-83
2024/01/28 08:08:52;;;;;;;15.35;6.32;;;1.90;99.90;;;1.92;69.75;101906.53;5023354;28;20082;-84
2024/01/28 08:11:22;;;;;;;10.60;4.82;;;1.90;99.90;;;1.97;69.97;101912.28;5004683;28;20041;-84
2024/01/28 08:13:49;;;;;;;13.07;5.20;;;1.90;99.90;;;2.00;70.06;101917.31;5004236;28;20061;-84
2024/01/28 08:16:17;;;;;;;10.30;4.93;;;1.90;99.90;;;2.02;70.14;101902.22;5021975;28;20054;-84
2024/01/28 08:18:45;;;;;;;11.75;4.72;;;2.00;99.90;;;2.06;70.25;101902.84;5020113;28;20046;-84
2024/01/28 08:21:13;;;;;;;14.18;5.30;;;2.00;99.90;;;2.06;70.41;101890.50;5002193;28;20042;-84
2024/01/28 08:23:41;;;;;;;13.98;5.40;;;2.00;99.90;;;2.13;70.18;101888.22;5020525;28;20046;-84
2024/01/28 08:26:09;;;;;;;12.13;5.10;;;2.10;99.90;;;2.19;69.97;101894.78;5003038;28;20056;-85
2024/01/28 08:28:39;;;;;;;11.23;4.30;;;2.20;99.90;;;2.26;69.64;101898.63;5001863;28;20038;-85
2024/01/28 08:31:06;;;;;;;12.60;3.92;;;2.30;99.90;;;2.37;68.71;101903.03;4986128;28;20050;-85
2024/01/28 08:33:34;;;;;;;8.65;3.60;;;2.40;99.90;;;2.43;68.14;101887.56;5001850;28;20034;-84
2024/01/28 08:36:02;;;;;;;11.93;3.95;;;2.60;99.90;;;2.51;67.33;101889.59;5003811;28;20049;-85
2024/01/28 08:38:32;;;;;;;9.25;3.38;;;2.60;99.90;;;2.60;66.59;101888.03;4995629;28;20034;-85
2024/01/28 08:41:00;;;;;;;10.18;3.00;;;2.70;99.90;;;2.67;65.53;101886.56;5000474;28;20054;-84
2024/01/28 08:43:27;;;;;;;9.02;3.20;;;2.80;99.90;;;2.76;65.16;101883.19;5020050;28;20041;-83
2024/01/28 08:45:56;;;;;;;6.82;3.00;;;2.90;99.90;;;2.83;64.94;101879.06;5001783;28;20073;-82
2024/01/28 08:48:24;;;;;;;10.07;3.70;;;3.00;99.90;;;2.88;65.08;101881.31;5018851;28;20092;-84
2024/01/28 08:50:51;;;;;;;7.05;3.28;;;3.00;99.90;;;2.94;64.52;101883.47;5009800;28;20046;-81
2024/01/28 08:53:18;;;;;;;11.45;3.40;;;3.10;99.90;;;3.02;63.74;101884.50;4986000;28;20046;-81
2024/01/28 08:55:46;;;;;;;8.40;3.03;;;3.20;99.90;;;3.09;62.97;101880.41;4984734;28;20107;-81
2024/01/28 08:58:13;;;;;;;8.40;2.90;;;3.30;99.90;;;3.20;62.13;101883.94;4984961;28;20082;-80
2024/01/28 09:00:42;;;;;;;8.18;2.92;;;3.40;99.90;;;3.26;62.38;101876.34;4960413;28;20051;-83
2024/01/28 09:03:12;;;;;;;8.15;2.95;;;3.50;99.90;;;3.34;61.78;101883.63;4981985;28;20606;-82
2024/01/28 09:05:39;;;;;;;5.72;2.55;;;3.50;99.90;;;3.44;61.22;101879.25;4947992;28;20043;-81
2024/01/28 09:08:07;;;;;;;8.18;3.15;;;3.60;99.90;;;3.51;61.64;101877.75;4980375;28;20121;-81
2024/01/28 09:10:36;;;;;;;7.60;3.17;;;3.70;99.90;;;3.53;61.37;101872.34;4987182;28;20042;-81
2024/01/28 09:13:04;;;;;;;8.23;3.05;;;3.80;99.90;;;3.61;60.79;101878.66;4999437;28;20058;-81
2024/01/28 09:15:31;;;;;;;8.25;2.80;;;4.00;99.90;;;3.70;60.80;101873.53;4978845;28;20049;-81
2024/01/28 09:17:59;;;;;;;6.78;2.53;;;3.90;99.90;;;3.78;60.13;101860.53;4963096;28;20043;-81
2024/01/28 09:20:28;;;;;;;6.53;2.53;;;4.00;99.90;;;3.84;59.48;101862.63;4980863;28;20050;-81
2024/01/28 09:22:56;;;;;;;6.50;2.67;;;4.10;99.90;;;3.94;59.60;101865.31;4980931;28;20463;-81
2024/01/28 09:25:23;;;;;;;6.65;2.67;;;4.20;99.90;;;4.02;58.76;101866.31;4972612;28;20058;-81
2024/01/28 09:27:52;;;;;;;8.38;2.58;;;4.30;99.90;;;4.11;57.96;101869.97;4980377;28;20078;-83
2024/01/28 09:30:19;;;;;;;9.20;3.10;;;4.40;99.90;;;4.24;57.33;101869.69;4979569;28;20043;-82
2024/01/28 09:32:47;;;;;;;6.07;2.22;;;4.60;99.90;;;4.35;57.29;101880.19;4979371;28;20105;-81
2024/01/28 09:35:16;;;;;;;7.53;1.92;;;4.70;99.90;;;4.39;56.71;101870.97;4977541;28;20069;-81
2024/01/28 09:37:46;;;;;;;6.50;1.88;;;4.80;99.90;;;4.52;56.37;101863.66;4963389;28;20045;-81
2024/01/28 09:40:14;;;;;;;4.13;1.33;;;4.90;99.90;;;4.60;55.43;101861.16;4980033;28;20042;-81
2024/01/28 09:42:52;;;;;;;4.43;1.73;;;5.00;99.90;;;4.71;55.29;101862.81;4975858;28;20035;-81
2024/01/28 09:45:21;;;;;;;5.45;2.40;;;5.10;99.90;;;4.80;55.15;101858.53;4935408;28;20042;-81
2024/01/28 09:47:51;;;;;;;6.05;1.70;;;5.20;99.90;;;4.89;54.12;101866.47;4962578;28;20042;-81
2024/01/28 09:50:20;;;;;;;5.47;1.77;;;5.30;99.90;;;5.01;54.65;101863.66;4964219;28;20054;-81
2024/01/28 09:52:49;;;;;;;3.92;1.60;;;5.40;99.90;;;5.04;53.92;101858.94;4964621;28;20146;-81
2024/01/28 09:55:16;;;;;;;4.13;1.50;;;5.40;99.90;;;5.10;53.67;101857.53;4982831;28;20034;-81
2024/01/28 09:57:46;;;;;;;5.88;1.80;;;5.50;99.90;;;5.16;53.38;101856.97;4989051;28;20414;-81
2024/01/28 10:00:15;;;;;;;6.78;1.58;;;5.60;99.90;;;5.24;53.20;101845.69;4965329;28;20047;-81
2024/01/28 10:02:43;;;;;;;4.55;1.88;;;5.60;99.90;;;5.32;52.27;101851.94;4984983;28;20506;-81
2024/01/28 10:05:10;;;;;;;8.18;2.03;;;5.70;99.90;;;5.40;52.63;101853.84;4948334;28;20153;-81
2024/01/28 10:07:47;;;;;;;5.88;1.65;;;5.80;99.90;;;5.45;52.35;101841.03;4977131;28;20077;-81
2024/01/28 10:10:17;;;;;;;7.72;1.70;;;5.90;99.90;;;5.54;52.00;101845.47;4982871;28;20204;-81
2024/01/28 10:12:49;;;;;;;5.57;1.80;;;5.90;99.90;;;5.60;51.65;101838.75;4946610;28;20055;-81
2024/01/28 10:15:18;;;;;;;4.72;1.75;;;6.00;99.90;;;5.63;51.62;101834.00;4984552;28;20042;-81
2024/01/28 10:17:50;;;;;;;4.72;1.65;;;6.00;99.90;;;5.69;52.15;101828.13;4982905;28;20494;-81
2024/01/28 10:20:19;;;;;;;4.97;1.98;;;6.10;99.90;;;5.78;51.53;101830.88;4965174;28;20089;-81
2024/01/28 10:22:47;;;;;;;5.05;1.60;;;6.20;99.90;;;5.84;51.28;101828.47;4984422;28;20047;-81
2024/01/28 10:25:19;;;;;;;4.78;1.70;;;6.30;99.90;;;5.90;50.55;101838.50;4964975;28;20058;-81
2024/01/28 10:27:48;;;;;;;5.60;1.67;;;6.30;99.90;;;5.97;50.21;101836.13;4980804;28;20107;-81